Time;durP1;ratioP1;P1;durP2;ratioP2;P2;SDS_P1;SDS_P2;PMS_P1;PMS_P2;Temp;Humidity;BMP_temperature;BMP_pressure;BME280_temperature;BME280_humidity;BME280_pressure;Samples;Min_cycle;Max_cycle;Signal;HPM_P1;HPM_P2
2023/04/23 00:02:21;;;;;;;40.20;31.10;;;;;;;10.83;50.51;99991.76;113961;1232;21942;-84
2023/04/23 00:05:08;;;;;;;40.30;30.20;;;;;;;10.80;50.57;99988.96;113777;1232;21916;-83
2023/04/23 00:08:23;;;;;;;44.20;31.20;;;;;;;10.76;50.47;99983.03;114689;1232;21942;-86
2023/04/23 00:11:05;;;;;;;37.70;29.10;;;;;;;10.69;50.81;99980.55;114248;1232;21895;-84
2023/04/23 00:13:48;;;;;;;41.00;29.30;;;;;;;10.66;50.81;99977.54;113698;1232;23681;-84
2023/04/23 00:16:26;;;;;;;35.20;26.70;;;;;;;10.64;50.71;99973.13;113899;1232;21924;-84
2023/04/23 00:19:07;;;;;;;34.90;27.70;;;;;;;10.61;50.84;99972.21;113894;1232;21949;-87
2023/04/23 00:21:48;;;;;;;33.10;25.20;;;;;;;10.57;50.87;99970.64;113819;1232;21940;-82
2023/04/23 00:24:24;;;;;;;34.90;25.00;;;;;;;10.56;50.87;99973.80;113651;1232;21952;-83
2023/04/23 00:27:07;;;;;;;31.80;24.80;;;;;;;10.56;50.90;99972.77;113801;1232;21941;-83
2023/04/23 00:29:45;;;;;;;33.00;23.00;;;;;;;10.57;50.77;99968.88;113604;1232;22940;-84
2023/04/23 00:32:17;;;;;;;32.60;23.00;;;;;;;10.55;50.80;99966.04;113725;1225;22053;-82
2023/04/23 00:34:55;;;;;;;28.90;22.60;;;;;;;10.54;50.68;99962.74;113672;1232;23015;-83
2023/04/23 00:37:32;;;;;;;29.60;22.10;;;;;;;10.52;50.81;99963.70;113798;1225;21932;-83
2023/04/23 00:40:22;;;;;;;29.20;22.00;;;;;;;10.52;50.73;99958.31;113804;1232;21931;-83
2023/04/23 00:42:57;;;;;;;28.70;21.70;;;;;;;10.52;50.81;99956.05;113508;1232;22250;-82
2023/04/23 00:45:28;;;;;;;31.50;23.70;;;;;;;10.55;50.58;99952.80;113548;1232;24021;-84
2023/04/23 00:48:12;;;;;;;30.70;23.10;;;;;;;10.55;50.58;99949.83;113726;1232;21929;-83
2023/04/23 00:50:46;;;;;;;;;;;;;;;10.52;50.63;99947.88;113760;1232;21934;-85
2023/04/23 00:53:27;;;;;;;32.10;22.40;;;;;;;10.40;50.87;99942.52;113968;1232;23562;-82
2023/04/23 00:56:10;;;;;;;32.90;24.20;;;;;;;10.40;50.92;99942.33;113199;1238;21958;-83
2023/04/23 00:58:42;;;;;;;33.90;24.10;;;;;;;10.42;51.04;99946.25;112806;1239;23647;-83
2023/04/23 01:01:19;;;;;;;29.80;23.60;;;;;;;10.41;50.95;99945.96;112792;1239;23002;-83
2023/04/23 01:03:51;;;;;;;28.70;22.90;;;;;;;10.38;50.87;99946.58;112807;1239;23066;-83
2023/04/23 01:06:24;;;;;;;26.30;21.80;;;;;;;10.35;51.21;99948.81;112421;1242;21958;-81
2023/04/23 01:08:58;;;;;;;28.10;23.90;;;;;;;10.33;51.14;99944.73;112686;1242;22979;-83
2023/04/23 01:11:42;;;;;;;32.10;24.30;;;;;;;10.32;51.21;99941.76;112488;1242;21943;-82
2023/04/23 01:14:12;;;;;;;33.10;23.50;;;;;;;10.29;51.35;99942.59;112785;1239;23781;-84
2023/04/23 01:16:51;;;;;;;32.60;24.90;;;;;;;10.27;51.43;99940.95;113115;1239;23062;-80
2023/04/23 01:19:32;;;;;;;30.10;23.80;;;;;;;10.26;51.35;99940.12;112818;1239;21972;-83
2023/04/23 01:22:15;;;;;;;;;;;;;;;10.22;51.43;99939.77;112756;1239;23018;-83
2023/04/23 01:25:05;;;;;;;29.20;23.90;;;;;;;10.12;51.79;99942.27;112423;1244;21995;-84
2023/04/23 01:27:40;;;;;;;34.10;24.30;;;;;;;10.07;51.91;99937.28;112657;1244;21975;-84
2023/04/23 01:30:14;;;;;;;38.60;26.50;;;;;;;10.09;51.78;99936.66;112629;1238;22108;-84
2023/04/23 01:32:47;;;;;;;29.90;25.90;;;;;;;10.10;51.88;99933.14;113537;1238;22018;-82
2023/04/23 01:35:30;;;;;;;28.30;25.10;;;;;;;10.09;51.89;99933.52;113402;1238;24993;-82
2023/04/23 01:38:12;;;;;;;28.70;24.60;;;;;;;10.09;51.82;99934.58;113316;1240;22700;-84
2023/04/23 01:40:44;;;;;;;27.10;24.20;;;;;;;10.07;51.86;99935.02;113095;1241;21950;-84
2023/04/23 01:43:30;;;;;;;31.70;22.70;;;;;;;10.03;51.83;99932.38;113607;1237;23003;-83
2023/04/23 01:46:11;;;;;;;27.70;22.90;;;;;;;9.99;51.92;99934.13;113460;1237;21937;-83
2023/04/23 01:48:48;;;;;;;25.20;20.80;;;;;;;9.96;51.94;99931.81;113525;1237;21954;-84
2023/04/23 01:51:22;;;;;;;32.80;19.70;;;;;;;9.94;52.03;99932.77;113196;1234;23000;-83
2023/04/23 01:53:55;;;;;;;;;;;;;;;9.91;52.05;99930.62;113252;1237;21957;-85
2023/04/23 01:56:29;;;;;;;25.00;19.10;;;;;;;9.82;52.22;99930.13;113517;1237;23009;-84
2023/04/23 01:59:07;;;;;;;23.70;18.80;;;;;;;9.81;52.12;99933.45;113585;1237;21984;-86
2023/04/23 02:01:45;;;;;;;22.20;19.40;;;;;;;9.81;52.13;99933.81;113744;1234;23592;-84
2023/04/23 02:04:21;;;;;;;24.10;17.80;;;;;;;9.81;52.00;99935.73;113861;1232;21952;-85
2023/04/23 02:07:10;;;;;;;25.80;19.40;;;;;;;9.81;51.99;99936.43;113485;1232;21967;-83
2023/04/23 02:09:45;;;;;;;23.60;19.80;;;;;;;9.78;52.20;99933.40;113802;1232;21962;-83
2023/04/23 02:12:30;;;;;;;23.60;17.80;;;;;;;9.76;52.29;99928.13;113988;1232;21925;-84
2023/04/23 02:15:11;;;;;;;28.10;18.10;;;;;;;9.73;52.25;99923.02;113832;1232;21930;-84
2023/04/23 02:17:50;;;;;;;21.40;18.10;;;;;;;9.71;52.26;99922.39;113892;1232;22724;-83
2023/04/23 02:20:35;;;;;;;22.00;16.80;;;;;;;9.71;52.36;99921.70;113788;1232;21937;-84
2023/04/23 02:23:29;;;;;;;20.60;18.00;;;;;;;9.69;52.28;99916.94;113860;1232;21984;-83
2023/04/23 02:26:09;;;;;;;21.00;17.70;;;;;;;9.69;52.21;99912.09;113365;1239;22007;-83
2023/04/23 02:28:48;;;;;;;22.10;16.90;;;;;;;9.67;52.34;99907.11;112787;1239;21989;-86
2023/04/23 02:31:42;;;;;;;22.40;16.80;;;;;;;9.65;52.25;99909.47;113060;1239;22978;-84
2023/04/23 02:34:21;;;;;;;25.40;17.30;;;;;;;9.63;52.26;99906.75;113188;1239;22945;-84
2023/04/23 02:37:03;;;;;;;19.60;15.70;;;;;;;9.63;52.27;99905.53;113221;1239;22282;-85
2023/04/23 02:39:42;;;;;;;24.70;16.60;;;;;;;9.62;52.49;99905.39;113000;1239;22708;-84
2023/04/23 02:42:12;;;;;;;20.20;16.00;;;;;;;9.62;52.48;99906.08;112990;1239;21941;-83
2023/04/23 02:44:52;;;;;;;17.60;15.50;;;;;;;9.63;52.47;99907.61;113469;1232;22930;-83
2023/04/23 02:47:30;;;;;;;16.70;14.90;;;;;;;9.63;52.34;99909.02;113354;1237;23568;-83
2023/04/23 02:50:08;;;;;;;21.30;17.80;;;;;;;9.61;52.46;99907.73;113385;1237;23702;-83
2023/04/23 02:52:41;;;;;;;21.00;16.60;;;;;;;9.59;52.39;99905.35;113406;1237;22379;-86
2023/04/23 02:55:13;;;;;;;19.40;16.10;;;;;;;9.58;52.35;99904.88;113339;1237;21909;-84
2023/04/23 02:57:56;;;;;;;22.70;16.70;;;;;;;9.54;52.55;99905.22;113445;1237;22250;-85
2023/04/23 03:00:32;;;;;;;18.80;15.00;;;;;;;9.51;52.64;99902.55;113512;1237;22042;-84
2023/04/23 03:03:08;;;;;;;19.00;15.80;;;;;;;9.49;52.67;99903.87;113328;1237;23683;-85
2023/04/23 03:05:41;;;;;;;21.00;15.50;;;;;;;9.46;52.85;99903.63;113643;1232;22152;-83
2023/04/23 03:08:17;;;;;;;18.60;16.20;;;;;;;9.45;52.92;99903.86;113939;1232;21953;-83
2023/04/23 03:10:51;;;;;;;17.90;14.80;;;;;;;9.43;52.88;99905.48;113568;1232;23590;-83
2023/04/23 03:13:25;;;;;;;18.00;14.60;;;;;;;9.43;52.76;99905.33;112942;1239;23719;-83
2023/04/23 03:16:05;;;;;;;20.00;14.40;;;;;;;9.41;52.86;99904.35;112948;1239;23687;-83
2023/04/23 03:18:36;;;;;;;16.20;14.20;;;;;;;9.38;52.94;99904.11;113152;1239;21959;-85
2023/04/23 03:21:09;;;;;;;18.60;15.70;;;;;;;9.37;53.05;99901.03;113036;1239;22734;-85
2023/04/23 03:23:44;;;;;;;17.00;13.70;;;;;;;9.37;52.94;99902.60;113131;1239;22019;-86
2023/04/23 03:26:21;;;;;;;19.50;15.70;;;;;;;9.35;53.00;99897.46;112936;1239;24126;-86
2023/04/23 03:28:56;;;;;;;19.60;15.80;;;;;;;9.35;52.86;99896.26;112406;1244;24292;-85
2023/04/23 03:31:30;;;;;;;22.80;16.60;;;;;;;9.31;53.00;99898.32;112594;1240;22719;-86
2023/04/23 03:34:04;;;;;;;17.00;15.30;;;;;;;9.28;53.01;99892.90;113100;1240;23686;-86
2023/04/23 03:36:35;;;;;;;19.40;16.40;;;;;;;9.26;53.08;99893.65;113156;1239;21951;-85
2023/04/23 03:39:06;;;;;;;19.10;16.20;;;;;;;9.25;53.22;99896.29;113118;1240;23178;-86
2023/04/23 03:41:52;;;;;;;18.90;16.90;;;;;;;9.23;53.29;99896.91;112980;1240;21910;-84
2023/04/23 03:44:38;;;;;;;22.10;18.40;;;;;;;9.23;53.39;99896.40;113189;1239;23578;-86
2023/04/23 03:47:17;;;;;;;22.10;18.80;;;;;;;9.24;53.51;99899.13;113686;1232;21974;-85
2023/04/23 03:49:52;;;;;;;23.10;19.00;;;;;;;9.28;53.46;99901.90;113743;1232;21968;-85
2023/04/23 03:52:30;;;;;;;22.70;19.50;;;;;;;9.34;53.26;99894.89;113676;1232;23697;-83
2023/04/23 03:55:04;;;;;;;22.80;20.30;;;;;;;9.39;53.09;99893.16;113732;1232;21940;-83
2023/04/23 03:57:41;;;;;;;35.40;31.60;;;;;;;9.40;53.16;99893.79;113916;1232;23692;-83
2023/04/23 04:00:41;;;;;;;30.20;26.10;;;;;;;9.39;53.23;99893.14;114186;1232;21936;-85
2023/04/23 04:03:11;;;;;;;22.60;20.10;;;;;;;9.41;53.03;99891.33;113924;1232;21938;-87
2023/04/23 04:05:47;;;;;;;21.50;19.30;;;;;;;9.43;53.06;99892.45;113829;1232;22772;-87
2023/04/23 04:08:20;;;;;;;26.70;20.20;;;;;;;9.46;52.91;99894.77;113852;1232;22010;-83
2023/04/23 04:10:54;;;;;;;24.60;19.80;;;;;;;9.52;52.98;99892.61;113778;1232;21958;-84
2023/04/23 04:13:27;;;;;;;21.90;18.40;;;;;;;9.60;53.07;99896.29;113949;1232;22382;-83
2023/04/23 04:16:02;;;;;;;21.10;18.60;;;;;;;9.70;52.86;99896.75;113853;1232;23668;-83
2023/04/23 04:18:39;;;;;;;20.40;16.90;;;;;;;9.80;52.63;99895.30;113289;1239;22359;-85
2023/04/23 04:21:11;;;;;;;20.50;17.80;;;;;;;9.87;52.35;99896.73;112835;1243;21994;-82
2023/04/23 04:23:47;;;;;;;24.70;16.90;;;;;;;9.96;52.07;99896.69;112656;1241;21989;-83
2023/04/23 04:26:23;;;;;;;21.70;17.40;;;;;;;10.01;52.01;99895.98;112501;1243;23584;-85
2023/04/23 04:29:00;;;;;;;18.40;16.50;;;;;;;10.06;51.88;99894.70;112623;1243;22447;-81
2023/04/23 04:31:32;;;;;;;24.50;19.40;;;;;;;10.12;51.74;99892.69;112045;1248;21964;-79
2023/04/23 04:34:07;;;;;;;25.00;20.80;;;;;;;10.19;51.59;99891.73;112119;1248;21965;-86
2023/04/23 04:36:55;;;;;;;24.90;22.00;;;;;;;10.23;51.37;99889.13;112561;1241;21948;-85
2023/04/23 04:39:36;;;;;;;24.80;20.00;;;;;;;10.28;51.19;99889.23;113199;1237;23572;-86
2023/04/23 04:42:17;;;;;;;21.60;18.30;;;;;;;10.35;51.28;99885.83;113355;1237;21959;-86
2023/04/23 04:45:16;;;;;;;21.40;17.70;;;;;;;10.45;51.21;99883.81;113662;1237;22871;-86
2023/04/23 04:47:57;;;;;;;23.70;17.10;;;;;;;10.58;51.13;99881.85;113322;1237;22009;-88
2023/04/23 04:50:30;;;;;;;18.90;16.90;;;;;;;10.73;50.99;99887.79;113949;1232;21990;-86
2023/04/23 04:53:10;;;;;;;18.50;14.90;;;;;;;10.89;51.01;99892.78;114085;1232;21935;-85
2023/04/23 04:55:51;;;;;;;18.40;13.20;;;;;;;11.12;50.62;99896.08;114264;1232;23553;-87
2023/04/23 04:58:35;;;;;;;18.20;16.20;;;;;;;11.30;49.92;99899.23;113877;1232;21961;-88
2023/04/23 05:01:06;;;;;;;18.10;16.20;;;;;;;11.41;49.71;99898.88;113916;1232;22714;-87
2023/04/23 05:03:46;;;;;;;21.70;18.40;;;;;;;11.55;49.50;99899.58;114046;1232;21944;-88
2023/04/23 05:06:31;;;;;;;18.00;16.10;;;;;;;11.66;49.11;99902.02;113837;1232;22008;-86
2023/04/23 05:09:16;;;;;;;19.00;15.00;;;;;;;11.78;48.95;99901.94;113765;1232;21933;-88
2023/04/23 05:12:15;;;;;;;20.00;14.90;;;;;;;11.89;48.60;99899.52;113986;1232;21965;-87
2023/04/23 05:15:05;;;;;;;19.60;15.90;;;;;;;12.01;48.44;99897.86;113963;1232;22689;-86
2023/04/23 05:17:50;;;;;;;17.60;15.30;;;;;;;12.11;48.08;99896.30;113861;1232;22003;-87
2023/04/23 05:20:29;;;;;;;22.10;16.50;;;;;;;12.18;47.80;99894.22;113782;1235;22579;-89
2023/04/23 05:23:11;;;;;;;18.60;16.20;;;;;;;12.27;47.77;99896.34;113549;1235;21938;-89
2023/04/23 05:26:09;;;;;;;21.30;16.10;;;;;;;12.32;47.51;99897.51;113750;1235;21991;-84
2023/04/23 05:28:59;;;;;;;20.50;18.30;;;;;;;12.39;47.34;99892.95;113685;1235;21952;-85
2023/04/23 05:31:39;;;;;;;20.00;17.70;;;;;;;12.50;47.47;99895.30;113518;1235;23763;-84
2023/04/23 05:34:13;;;;;;;23.30;19.00;;;;;;;12.63;47.12;99890.10;113637;1235;21983;-87
2023/04/23 05:36:43;;;;;;;22.80;16.40;;;;;;;12.78;47.10;99891.35;113514;1235;21960;-85
2023/04/23 05:39:21;;;;;;;19.30;16.60;;;;;;;13.00;46.91;99889.48;113363;1235;24190;-83
2023/04/23 05:41:56;;;;;;;19.10;15.70;;;;;;;13.20;46.46;99890.11;113287;1235;21988;-84
2023/04/23 05:44:34;;;;;;;17.40;15.60;;;;;;;13.37;46.38;99887.27;113203;1232;22048;-86
2023/04/23 05:47:25;;;;;;;19.30;15.80;;;;;;;13.55;46.06;99889.60;113955;1232;21956;-86
2023/04/23 05:50:07;;;;;;;16.50;14.70;;;;;;;13.79;45.96;99890.13;113757;1232;22744;-80
2023/04/23 05:52:39;;;;;;;15.40;13.80;;;;;;;14.05;45.71;99886.81;113809;1232;21929;-81
2023/04/23 05:55:09;;;;;;;16.70;14.20;;;;;;;14.37;45.39;99886.84;113661;1232;21957;-80
2023/04/23 05:57:48;;;;;;;16.70;13.50;;;;;;;14.66;44.71;99887.21;113663;1232;21936;-83
2023/04/23 06:00:29;;;;;;;15.30;13.70;;;;;;;14.95;44.48;99887.86;113891;1232;23787;-83
2023/04/23 06:03:01;;;;;;;17.40;13.10;;;;;;;15.27;44.14;99886.11;113376;1232;21946;-77
2023/04/23 06:05:37;;;;;;;16.60;14.20;;;;;;;15.66;43.49;99883.26;113843;1232;22003;-79
2023/04/23 06:08:24;;;;;;;15.30;12.70;;;;;;;16.12;42.85;99883.14;113488;1232;22939;-81
2023/04/23 06:11:03;;;;;;;16.60;12.00;;;;;;;16.59;42.02;99882.05;113642;1232;21961;-80
2023/04/23 06:13:35;;;;;;;14.90;12.70;;;;;;;17.03;41.31;99881.03;113664;1232;21958;-80
2023/04/23 06:16:16;;;;;;;15.10;12.70;;;;;;;17.41;40.35;99877.40;113861;1232;23920;-80
2023/04/23 06:18:52;;;;;;;16.20;12.10;;;;;;;17.69;39.36;99876.54;113673;1232;22818;-80
2023/04/23 06:21:33;;;;;;;15.70;12.30;;;;;;;17.86;38.65;99877.28;113730;1232;22753;-80
2023/04/23 06:24:11;;;;;;;16.70;11.80;;;;;;;18.11;38.72;99878.02;113890;1232;21937;-79
2023/04/23 06:26:56;;;;;;;14.80;11.50;;;;;;;18.37;38.35;99878.86;113333;1238;23563;-81
2023/04/23 06:29:34;;;;;;;17.70;12.50;;;;;;;18.69;37.83;99876.33;113249;1237;21938;-80
2023/04/23 06:32:07;;;;;;;14.40;11.10;;;;;;;18.90;37.07;99879.75;113340;1238;23865;-80
2023/04/23 06:34:46;;;;;;;18.20;12.30;;;;;;;19.05;36.76;99878.81;113353;1238;21983;-82
2023/04/23 06:37:33;;;;;;;12.10;10.80;;;;;;;19.16;36.37;99875.27;113362;1238;23005;-80
2023/04/23 06:40:09;;;;;;;15.30;10.80;;;;;;;19.31;36.62;99873.46;113307;1238;21955;-81
2023/04/23 06:42:41;;;;;;;13.30;10.80;;;;;;;19.64;36.62;99870.77;113215;1238;22969;-81
2023/04/23 06:45:41;;;;;;;16.00;11.20;;;;;;;19.97;35.77;99868.15;113783;1232;21965;-81
2023/04/23 06:48:15;;;;;;;14.40;12.20;;;;;;;20.24;35.40;99864.18;113630;1232;21984;-82
2023/04/23 06:50:50;;;;;;;14.90;13.30;;;;;;;20.41;34.70;99860.89;113591;1232;22105;-82
2023/04/23 06:53:40;;;;;;;14.00;12.10;;;;;;;20.48;34.23;99858.34;113068;1238;21956;-80
2023/04/23 06:56:15;;;;;;;14.10;12.70;;;;;;;20.56;34.55;99851.63;113456;1239;21997;-82
2023/04/23 06:58:49;;;;;;;13.80;11.20;;;;;;;20.72;34.23;99850.30;112831;1243;22301;-81
2023/04/23 07:01:23;;;;;;;13.30;11.70;;;;;;;20.78;33.79;99849.08;112940;1242;21958;-80
2023/04/23 07:03:55;;;;;;;18.50;10.90;;;;;;;20.90;34.23;99844.84;111934;1249;23099;-80
2023/04/23 07:06:28;;;;;;;15.80;13.00;;;;;;;21.16;34.38;99844.76;112391;1249;21967;-80
2023/04/23 07:09:08;;;;;;;14.20;10.10;;;;;;;21.55;33.92;99844.59;111908;1254;21960;-80
2023/04/23 07:12:12;;;;;;;12.30;9.90;;;;;;;21.81;32.71;99842.39;111832;1251;21957;-81
2023/04/23 07:14:47;;;;;;;14.00;9.80;;;;;;;21.95;32.91;99841.85;111423;1257;21963;-79
2023/04/23 07:18:16;;;;;;;11.90;9.40;;;;;;;22.29;32.62;99842.19;111524;1252;23073;-82
2023/04/23 07:25:25;;;;;;;12.90;9.70;;;;;;;23.60;31.83;99837.27;108229;1288;544000;-82
2023/04/23 07:27:57;;;;;;;13.10;9.60;;;;;;;24.00;30.87;99833.27;111523;1256;21956;-82
2023/04/23 07:30:28;;;;;;;13.30;8.90;;;;;;;24.46;30.39;99826.70;110947;1261;23702;-80
2023/04/23 07:33:08;;;;;;;15.40;10.40;;;;;;;24.75;29.11;99829.02;110847;1261;21968;-80
2023/04/23 07:35:53;;;;;;;12.70;8.70;;;;;;;25.00;29.02;99827.48;111078;1261;23614;-81
2023/04/23 07:38:30;;;;;;;12.60;10.60;;;;;;;25.29;28.63;99826.81;109168;1259;2290442;-80
2023/04/23 07:41:04;;;;;;;23.10;20.40;;;;;;;25.44;28.47;99821.01;111023;1259;21926;-81
2023/04/23 07:43:49;;;;;;;16.10;8.20;;;;;;;25.75;28.09;99817.79;111145;1259;21959;-84
2023/04/23 07:47:01;;;;;;;13.00;7.20;;;;;;;25.88;27.26;99817.37;111006;1257;22554;-81
2023/04/23 07:49:37;;;;;;;18.30;8.50;;;;;;;26.00;27.44;99817.30;111419;1254;21989;-82
2023/04/23 07:52:19;;;;;;;11.50;7.10;;;;;;;26.26;27.06;99817.12;111302;1252;21972;-81
2023/04/23 07:54:54;;;;;;;15.90;11.20;;;;;;;26.40;26.11;99816.30;111129;1258;21977;-81
2023/04/23 07:57:28;;;;;;;10.70;7.50;;;;;;;26.35;26.07;99812.16;111093;1258;22018;-80
2023/04/23 08:00:22;;;;;;;13.40;7.90;;;;;;;26.32;26.17;99807.63;111245;1255;23651;-82
2023/04/23 08:03:13;;;;;;;8.10;6.50;;;;;;;26.49;26.27;99805.22;111157;1262;22721;-83
2023/04/23 08:06:23;;;;;;;8.20;7.30;;;;;;;26.63;25.96;99801.94;111122;1260;21977;-84
2023/04/23 08:09:53;;;;;;;11.40;7.40;;;;;;;26.64;25.87;99798.25;111026;1262;23045;-83
2023/04/23 08:12:46;;;;;;;10.90;6.10;;;;;;;26.26;25.85;99795.15;109944;1267;21751;-83
2023/04/23 08:15:22;;;;;;;12.10;7.30;;;;;;;26.03;25.81;99792.39;109919;1267;22852;-83
2023/04/23 08:17:54;;;;;;;10.90;6.20;;;;;;;25.99;25.90;99787.00;110730;1267;22995;-84
2023/04/23 08:20:26;;;;;;;12.40;5.90;;;;;;;26.03;25.66;99789.55;110481;1267;24400;-85
2023/04/23 08:22:59;;;;;;;11.70;5.90;;;;;;;26.02;25.76;99786.15;110054;1267;21972;-86
2023/04/23 08:25:32;;;;;;;9.20;5.80;;;;;;;26.18;26.25;99789.83;110162;1267;21976;-83
2023/04/23 08:28:04;;;;;;;7.40;5.50;;;;;;;26.49;25.68;99788.98;109803;1270;22397;-82
2023/04/23 08:30:35;;;;;;;;;;;;;;;26.63;25.29;99784.96;109622;1271;21991;-84
2023/04/23 08:33:17;;;;;;;10.70;8.30;;;;;;;26.83;25.37;99783.17;109868;1271;22018;-84
2023/04/23 08:35:50;;;;;;;10.20;6.00;;;;;;;27.15;24.91;99779.30;110167;1267;22189;-83
2023/04/23 08:38:21;;;;;;;;;;;;;;;27.34;24.21;99779.84;109994;1269;21952;-83
2023/04/23 08:40:57;;;;;;;10.20;5.90;;;;;;;27.44;24.25;99780.02;109875;1269;23401;-83
2023/04/23 08:43:59;;;;;;;14.00;6.30;;;;;;;27.60;23.76;99775.33;110632;1260;21981;-84
2023/04/23 08:46:44;;;;;;;7.70;6.50;;;;;;;27.72;23.51;99768.90;111357;1251;23763;-84
2023/04/23 08:49:17;;;;;;;11.90;5.50;;;;;;;27.82;23.76;99769.59;111510;1254;21961;-86
2023/04/23 08:52:10;;;;;;;10.70;5.30;;;;;;;28.05;23.86;99769.40;111481;1255;22189;-83
2023/04/23 08:54:52;;;;;;;8.60;5.00;;;;;;;28.34;23.18;99761.80;111323;1258;21974;-82
2023/04/23 08:57:33;;;;;;;12.70;7.40;;;;;;;28.32;23.00;99760.95;111192;1258;22950;-82
2023/04/23 09:00:57;;;;;;;7.80;4.70;;;;;;;28.14;23.05;99757.30;110914;1258;21997;-87
2023/04/23 09:04:34;;;;;;;8.40;4.20;;;;;;;28.29;22.72;99751.98;110042;1270;21974;-84
2023/04/23 09:07:34;;;;;;;25.20;5.60;;;;;;;28.24;22.10;99745.29;109301;1278;22110;-84
2023/04/23 09:10:18;;;;;;;13.80;8.80;;;;;;;28.09;22.40;99741.39;108958;1281;23741;-83
2023/04/23 09:13:22;;;;;;;8.50;4.90;;;;;;;28.09;22.62;99742.67;108912;1283;22015;-83
2023/04/23 09:16:05;;;;;;;9.30;4.80;;;;;;;28.36;22.44;99736.81;109014;1283;22446;-84
2023/04/23 09:18:56;;;;;;;9.00;5.00;;;;;;;28.51;21.99;99737.48;108947;1282;21999;-85
2023/04/23 09:21:38;;;;;;;11.50;9.70;;;;;;;28.68;21.69;99735.12;108743;1282;23068;-83
2023/04/23 09:24:30;;;;;;;14.10;5.70;;;;;;;28.79;21.92;99735.34;108903;1276;21995;-85
2023/04/23 09:27:35;;;;;;;9.20;4.50;;;;;;;29.07;22.06;99733.13;109078;1279;22019;-85
2023/04/23 09:30:26;;;;;;;11.10;5.00;;;;;;;29.63;21.72;99736.43;109136;1278;21781;-84
2023/04/23 09:33:48;;;;;;;;;;;;;;;;;;;;;
2023/04/23 09:37:39;;;;;;;10.30;4.80;;;;;;;29.84;21.02;99732.52;109688;1272;23286;-92
2023/04/23 09:41:33;;;;;;;6.20;4.00;;;;;;;29.93;21.05;99733.48;110036;1271;22007;-91
2023/04/23 09:45:01;;;;;;;8.50;4.30;;;;;;;30.32;19.86;99726.05;109271;1278;24330;-85
2023/04/23 09:48:04;;;;;;;9.90;4.40;;;;;;;30.23;19.28;99720.98;109095;1277;22758;-86
2023/04/23 09:51:24;;;;;;;10.30;4.60;;;;;;;30.07;19.37;99717.29;108989;1277;22016;-85
2023/04/23 09:54:25;;;;;;;;;;;;;;;;;;;;;
2023/04/23 09:57:54;;;;;;;9.60;4.30;;;;;;;29.93;19.59;99716.27;108884;1285;22677;-80
2023/04/23 10:00:24;;;;;;;5.90;3.80;;;;;;;29.80;19.60;99710.67;108585;1287;21995;-78
2023/04/23 10:02:58;;;;;;;6.50;3.40;;;;;;;29.45;19.85;99705.20;108217;1292;23739;-83
2023/04/23 10:05:58;;;;;;;7.10;4.40;;;;;;;29.30;20.46;99702.58;108373;1292;22006;-84
2023/04/23 10:08:30;;;;;;;7.80;3.70;;;;;;;29.66;20.52;99696.88;108184;1292;23093;-86
2023/04/23 10:11:03;;;;;;;12.40;5.10;;;;;;;29.68;19.92;99692.95;108221;1292;22019;-85
2023/04/23 10:14:04;;;;;;;10.80;3.90;;;;;;;29.42;20.16;99691.95;108404;1289;22009;-82
2023/04/23 10:16:59;;;;;;;6.90;3.30;;;;;;;29.36;20.32;99689.17;109244;1271;22109;-84
2023/04/23 10:20:49;;;;;;;5.30;3.20;;;;;;;29.34;20.43;99682.17;109770;1271;21986;-83
2023/04/23 10:24:27;;;;;;;28.90;4.90;;;;;;;29.01;20.10;99684.89;110454;1267;23073;-82
2023/04/23 10:27:04;;;;;;;8.70;3.90;;;;;;;28.71;20.32;99683.96;110490;1264;22120;-81
2023/04/23 10:30:36;;;;;;;23.60;15.60;;;;;;;28.43;20.64;99674.98;110813;1264;21970;-84
2023/04/23 10:34:54;;;;;;;;;;;;;;;;;;;;;
2023/04/23 10:38:55;;;;;;;7.70;4.10;;;;;;;28.67;20.93;99674.50;110098;1269;22431;-84
2023/04/23 10:43:17;;;;;;;;;;;;;;;28.49;21.02;99665.59;109504;1275;21991;-80
2023/04/23 10:48:07;;;;;;;4.60;2.70;;;;;;;28.38;21.12;99667.05;108530;1286;22002;-76
2023/04/23 10:51:30;;;;;;;8.40;3.30;;;;;;;27.74;21.59;99670.35;106715;1304;22241;-80
2023/04/23 10:54:46;;;;;;;12.40;4.70;;;;;;;27.28;22.13;99667.55;106421;1308;23782;-81
2023/04/23 10:57:37;;;;;;;16.60;4.30;;;;;;;27.08;22.43;99672.12;106027;1310;22202;-79
2023/04/23 11:00:56;;;;;;;;;;;;;;;;;;;;;
2023/04/23 11:04:09;;;;;;;10.80;6.30;;;;;;;26.54;23.31;99664.51;105983;1313;22043;-79
2023/04/23 11:07:27;;;;;;;4.70;3.30;;;;;;;26.16;23.38;99663.09;106006;1313;22054;-78
2023/04/23 11:10:59;;;;;;;8.30;3.70;;;;;;;25.68;24.14;99667.80;106042;1313;22029;-80
2023/04/23 11:24:16;;;;;;;8.10;3.80;;;;;;;26.16;23.78;99659.61;108383;1279;548111;-79
2023/04/23 11:26:54;;;;;;;4.40;3.10;;;;;;;26.05;24.13;99651.30;109085;1260;2151817;-76
2023/04/23 11:29:39;;;;;;;8.70;3.90;;;;;;;25.46;24.50;99649.73;110467;1260;23087;-76
2023/04/23 11:32:27;;;;;;;10.50;3.50;;;;;;;25.07;25.19;99648.85;110230;1265;21981;-79
2023/04/23 11:36:07;;;;;;;21.80;11.40;;;;;;;24.81;25.60;99649.44;109962;1270;21983;-76
2023/04/23 11:43:03;;;;;;;7.40;3.70;;;;;;;24.58;26.15;99633.80;108734;1282;21794;-79
2023/04/23 11:46:39;;;;;;;8.40;4.10;;;;;;;24.56;26.34;99635.40;108460;1287;22012;-76
2023/04/23 11:49:37;;;;;;;9.90;3.60;;;;;;;24.51;26.18;99633.41;108425;1284;22020;-79
2023/04/23 11:52:30;;;;;;;8.70;3.50;;;;;;;24.52;26.51;99637.92;108769;1280;23071;-80
2023/04/23 11:55:51;;;;;;;6.40;3.00;;;;;;;24.50;26.53;99635.08;108710;1281;21990;-79
2023/04/23 11:58:26;;;;;;;5.00;3.30;;;;;;;24.44;26.69;99632.54;108698;1281;22011;-77
2023/04/23 12:01:23;;;;;;;11.60;3.30;;;;;;;24.39;26.44;99637.01;108854;1281;22048;-77
2023/04/23 12:08:44;;;;;;;4.20;2.90;;;;;;;24.03;26.65;99630.20;109056;1280;22016;-79
2023/04/23 12:11:44;;;;;;;;;;;;;;;;;;;;;
2023/04/23 12:15:04;;;;;;;8.00;3.40;;;;;;;24.00;27.26;99624.23;108884;1278;21983;-81
2023/04/23 12:18:44;;;;;;;;;;;;;;;;;;;;;
2023/04/23 12:22:08;;;;;;;8.20;5.30;;;;;;;23.98;27.11;99623.45;109608;1275;21994;-79
2023/04/23 12:24:53;;;;;;;7.60;3.70;;;;;;;23.91;27.24;99618.45;109194;1269;22762;-80
2023/04/23 12:31:10;;;;;;;3.60;2.90;;;;;;;23.96;27.18;99616.35;109887;1268;23741;-80
2023/04/23 12:34:20;;;;;;;7.90;4.40;;;;;;;23.98;27.05;99610.40;109773;1268;21994;-79
2023/04/23 12:37:06;;;;;;;8.20;4.10;;;;;;;24.09;27.26;99611.53;109309;1275;23011;-81
2023/04/23 12:39:43;;;;;;;7.90;3.30;;;;;;;24.20;27.24;99613.85;109041;1278;21948;-79
2023/04/23 12:42:39;;;;;;;10.00;3.70;;;;;;;24.21;26.84;99601.95;108972;1278;21685;-79
2023/04/23 12:45:49;;;;;;;6.30;3.10;;;;;;;24.27;27.27;99603.12;108890;1278;21989;-80
2023/04/23 12:48:27;;;;;;;5.10;3.20;;;;;;;24.35;27.08;99603.27;109214;1273;23036;-80
2023/04/23 12:50:59;;;;;;;5.30;2.80;;;;;;;24.41;27.04;99604.65;109263;1273;21988;-79
2023/04/23 12:53:36;;;;;;;7.10;2.80;;;;;;;24.47;26.99;99605.71;109469;1273;23624;-77
2023/04/23 12:56:17;;;;;;;9.90;3.10;;;;;;;24.50;26.71;99602.73;109479;1273;21980;-76
2023/04/23 12:59:04;;;;;;;7.20;3.10;;;;;;;24.44;26.48;99598.04;109704;1269;23040;-77
2023/04/23 13:02:05;;;;;;;10.30;3.40;;;;;;;24.25;26.62;99594.59;110172;1262;21980;-78
2023/04/23 13:05:00;;;;;;;;;;;;;;;;;;;;;
2023/04/23 13:07:52;;;;;;;4.50;3.20;;;;;;;24.09;27.35;99595.55;110527;1263;23620;-78
2023/04/23 13:10:25;;;;;;;9.50;3.40;;;;;;;24.07;27.51;99594.70;110517;1263;21969;-82
2023/04/23 13:13:54;;;;;;;5.70;3.20;;;;;;;24.03;27.64;99593.89;110179;1264;23033;-81
2023/04/23 13:20:56;;;;;;;8.50;3.10;;;;;;;24.02;27.82;99591.16;109366;1276;23726;-80
2023/04/23 13:23:49;;;;;;;5.20;3.40;;;;;;;23.97;27.98;99593.24;109122;1276;21969;-79
2023/04/23 13:26:23;;;;;;;6.90;3.40;;;;;;;23.96;28.22;99593.70;109026;1276;22040;-77
2023/04/23 13:29:26;;;;;;;6.40;3.30;;;;;;;24.03;28.53;99593.35;109024;1276;23733;-81
2023/04/23 13:32:39;;;;;;;5.10;3.00;;;;;;;24.13;28.18;99590.85;109269;1275;21979;-78